createdAt,value
2022-09-09T03:22:32.271Z,94.60
2022-09-09T03:26:39.104Z,94.60
2022-09-09T03:30:46.558Z,94.40
2022-09-09T03:34:51.217Z,94.60
2022-09-09T03:38:56.744Z,94.70
2022-09-09T03:43:03.455Z,94.60
2022-09-09T03:47:08.396Z,94.50
2022-09-09T03:51:13.137Z,94.90
2022-09-09T03:55:18.977Z,95.20
2022-09-09T03:59:24.507Z,95.20
2022-09-09T04:03:29.860Z,95.10
2022-09-09T04:07:34.416Z,95.00
2022-09-09T04:11:38.909Z,95.20
2022-09-09T04:15:43.859Z,95.20
2022-09-09T04:19:49.319Z,95.40
2022-09-09T04:23:54.106Z,95.50
2022-09-09T04:28:00.418Z,95.40
2022-09-09T04:32:06.533Z,95.40
2022-09-09T04:36:12.177Z,95.40
2022-09-09T04:40:16.866Z,95.20
2022-09-09T04:44:21.823Z,95.10
2022-09-09T04:48:26.900Z,95.00
2022-09-09T04:52:31.664Z,94.70
2022-09-09T04:56:35.912Z,94.80
2022-09-09T05:00:40.165Z,94.80
2022-09-09T05:04:45.744Z,94.80
2022-09-09T05:08:54.485Z,94.80
2022-09-09T05:13:03.424Z,94.80
2022-09-09T05:17:08.233Z,94.80
2022-09-09T05:21:17.744Z,94.80
2022-09-09T05:25:23.852Z,94.80
2022-09-09T05:29:29.025Z,95.40
2022-09-09T05:33:34.746Z,94.60
2022-09-09T05:37:39.354Z,93.30
2022-09-09T05:41:43.688Z,92.70
2022-09-09T05:45:49.768Z,92.20
2022-09-09T05:49:54.096Z,92.20
2022-09-09T05:54:00.614Z,92.70
2022-09-09T05:58:09.121Z,91.10
2022-09-09T06:02:14.863Z,90.30
2022-09-09T06:06:25.600Z,89.40
2022-09-09T06:10:31.903Z,88.90
2022-09-09T06:14:36.470Z,87.60
2022-09-09T06:18:42.159Z,86.70
2022-09-09T06:22:47.994Z,86.10
2022-09-09T06:26:53.274Z,84.40
2022-09-09T06:31:02.898Z,82.20
2022-09-09T06:35:09.287Z,80.10
2022-09-09T06:39:15.209Z,81.80
2022-09-09T06:43:21.338Z,84.40
2022-09-09T06:47:30.281Z,86.90
2022-09-09T06:51:38.953Z,88.90
2022-09-09T06:55:45.918Z,89.60
2022-09-09T06:59:50.794Z,89.30
2022-09-09T07:04:00.233Z,89.80
2022-09-09T07:08:05.515Z,90.00
2022-09-09T07:12:10.310Z,90.30
2022-09-09T07:16:32.669Z,90.30
2022-09-09T07:20:37.912Z,90.50
2022-09-09T07:24:42.685Z,90.90
2022-09-09T07:28:47.671Z,91.00
2022-09-09T07:32:54.303Z,91.20
2022-09-09T07:37:01.928Z,91.50
2022-09-09T07:41:15.672Z,91.70
2022-09-09T07:45:19.923Z,91.50
2022-09-09T07:49:29.657Z,91.40
2022-09-09T07:53:39.195Z,91.40
2022-09-09T07:57:43.755Z,91.50
2022-09-09T08:01:56.127Z,91.40
2022-09-09T08:06:09.645Z,91.40
2022-09-09T08:10:16.145Z,91.50
2022-09-09T08:14:23.754Z,91.70
2022-09-09T08:18:29.511Z,91.90
2022-09-09T08:22:33.660Z,91.80
2022-09-09T08:26:45.657Z,91.80
2022-09-09T08:30:50.501Z,91.90
2022-09-09T08:34:54.995Z,91.80
2022-09-09T08:39:08.714Z,91.80
2022-09-09T08:43:14.775Z,92.00
2022-09-09T08:47:45.336Z,92.20
2022-09-09T08:51:52.301Z,92.20
2022-09-09T08:56:23.969Z,92.60
2022-09-09T09:01:03.246Z,93.20
2022-09-09T09:05:31.635Z,92.80
2022-09-09T09:09:54.605Z,92.70
2022-09-09T09:14:05.956Z,92.40
2022-09-09T09:18:14.234Z,91.90
2022-09-09T09:22:44.044Z,91.70
2022-09-09T09:26:50.540Z,91.50
2022-09-09T09:31:15.221Z,91.10
2022-09-09T09:35:24.196Z,90.10
2022-09-09T09:44:21.885Z,88.40
2022-09-09T09:48:29.325Z,88.30
2022-09-09T09:52:38.274Z,89.10
2022-09-09T09:56:47.396Z,89.70
2022-09-09T10:00:54.774Z,89.90
2022-09-09T10:05:10.834Z,89.50
2022-09-09T10:09:35.315Z,88.40
2022-09-09T10:13:49.242Z,87.00
2022-09-09T10:17:53.563Z,86.00
2022-09-09T10:22:18.603Z,84.80
2022-09-09T10:26:50.864Z,84.00
2022-09-09T10:31:18.760Z,83.30
2022-09-09T10:35:55.403Z,82.70
2022-09-09T10:40:28.655Z,83.10
2022-09-09T10:45:00.841Z,83.80
2022-09-09T10:49:24.982Z,82.90
2022-09-09T10:53:39.189Z,82.20
2022-09-09T10:57:50.594Z,82.60
2022-09-09T11:02:16.752Z,82.90
2022-09-09T11:06:27.431Z,82.30
2022-09-09T11:10:42.016Z,82.70
2022-09-09T11:15:12.613Z,82.70
2022-09-09T11:19:38.514Z,82.70
2022-09-09T11:24:02.870Z,81.80
2022-09-09T11:28:21.333Z,81.30
2022-09-09T11:33:04.232Z,81.00
2022-09-09T11:37:45.851Z,79.50
2022-09-09T11:41:51.962Z,79.20
2022-09-09T11:46:01.468Z,78.00
2022-09-09T11:50:41.794Z,77.90
2022-09-09T11:54:52.671Z,77.60
2022-09-09T11:59:30.602Z,76.50
2022-09-09T12:03:52.466Z,75.90
2022-09-09T12:08:03.163Z,75.30
2022-09-09T12:12:15.442Z,75.00
2022-09-09T12:16:49.116Z,73.90
2022-09-09T12:21:09.235Z,73.60
2022-09-09T12:25:19.146Z,72.40
2022-09-09T12:29:55.868Z,70.40
2022-09-09T12:34:15.495Z,67.90
2022-09-09T12:38:41.701Z,66.90
2022-09-09T12:42:46.525Z,65.60
2022-09-09T12:46:51.553Z,65.60
2022-09-09T12:50:57.644Z,65.40
2022-09-09T12:55:10.024Z,65.10
2022-09-09T12:59:27.003Z,64.20
2022-09-09T13:03:47.237Z,62.70
2022-09-09T13:07:54.204Z,62.00
2022-09-09T13:12:02.688Z,60.10
2022-09-09T13:16:21.537Z,60.20
2022-09-09T13:20:27.634Z,60.40
2022-09-09T13:24:37.083Z,58.80
2022-09-09T13:28:41.563Z,57.20
2022-09-09T13:32:47.313Z,56.00
2022-09-09T13:36:57.974Z,55.40
2022-09-09T13:41:10.352Z,55.80
2022-09-09T13:45:24.014Z,55.30
2022-09-09T13:49:35.293Z,54.30
2022-09-09T13:53:41.564Z,54.60
2022-09-09T13:58:01.671Z,55.60
2022-09-09T14:02:07.108Z,54.50
2022-09-09T14:06:15.193Z,54.40
2022-09-09T14:10:19.645Z,55.10
2022-09-09T14:14:24.034Z,55.20
2022-09-09T14:18:28.202Z,55.40
2022-09-09T14:22:34.205Z,55.30
2022-09-09T14:26:39.610Z,54.40
2022-09-09T14:30:48.460Z,53.80
2022-09-09T14:34:57.881Z,53.90
2022-09-09T14:39:03.801Z,54.00
2022-09-09T14:43:13.233Z,53.10
2022-09-09T14:47:19.873Z,52.80
2022-09-09T14:51:26.553Z,52.70
2022-09-09T14:55:31.343Z,52.00
2022-09-09T14:59:36.358Z,51.90
2022-09-09T15:03:42.047Z,51.60
2022-09-09T15:07:46.845Z,51.80
2022-09-09T15:11:54.043Z,51.40
2022-09-09T15:16:05.155Z,52.10
2022-09-09T15:20:11.063Z,52.30
2022-09-09T15:24:15.235Z,52.30
2022-09-09T15:28:19.954Z,51.90
2022-09-09T15:32:24.274Z,51.80
2022-09-09T15:36:40.526Z,51.90
2022-09-09T15:40:46.529Z,52.00
2022-09-09T15:44:53.316Z,52.20
2022-09-09T15:49:04.602Z,52.40
2022-09-09T15:53:08.761Z,52.20
2022-09-09T15:57:16.594Z,52.40
2022-09-09T16:01:27.403Z,52.70
2022-09-09T16:05:31.885Z,53.00
2022-09-09T16:09:37.154Z,52.90
2022-09-09T16:13:41.726Z,53.10
2022-09-09T16:17:46.276Z,53.30
2022-09-09T16:21:52.836Z,53.60
2022-09-09T16:26:00.495Z,53.90
2022-09-09T16:30:09.465Z,54.40
2022-09-09T16:34:14.276Z,55.00
2022-09-09T16:38:18.774Z,55.50
2022-09-09T16:42:24.171Z,55.80
2022-09-09T16:46:31.390Z,56.10
2022-09-09T16:50:36.036Z,56.60
2022-09-09T16:54:40.396Z,57.00
2022-09-09T16:58:47.236Z,57.40
2022-09-09T17:02:51.763Z,57.80
2022-09-09T17:06:57.554Z,58.10
2022-09-09T17:11:02.074Z,58.60
2022-09-09T17:15:08.514Z,59.20
2022-09-09T17:19:15.533Z,59.80
2022-09-09T17:23:21.236Z,60.40
2022-09-09T17:27:25.650Z,61.00
2022-09-09T17:31:31.754Z,61.60
2022-09-09T17:35:36.165Z,62.10
2022-09-09T17:39:40.528Z,62.60
2022-09-09T17:43:48.597Z,63.00
2022-09-09T17:47:56.424Z,63.60
2022-09-09T17:52:01.483Z,64.10
2022-09-09T17:56:08.915Z,64.70
2022-09-09T18:00:13.874Z,65.20
2022-09-09T18:04:19.558Z,65.60
2022-09-09T18:08:23.799Z,66.10
2022-09-09T18:12:29.890Z,66.60
2022-09-09T18:16:37.028Z,67.00
2022-09-09T18:20:42.122Z,67.50
2022-09-09T18:24:48.782Z,67.90
2022-09-09T18:28:57.643Z,68.10
2022-09-09T18:33:02.772Z,68.50
2022-09-09T18:37:08.679Z,68.90
2022-09-09T18:41:18.371Z,69.30
2022-09-09T18:45:23.398Z,69.70
2022-09-09T18:49:28.118Z,70.00
2022-09-09T18:53:34.835Z,70.10
2022-09-09T18:57:39.324Z,70.30
2022-09-09T19:01:45.124Z,70.60
2022-09-09T19:05:49.502Z,71.00
2022-09-09T19:09:56.195Z,71.20
2022-09-09T19:14:04.359Z,71.50
2022-09-09T19:18:10.094Z,71.80
2022-09-09T19:22:16.628Z,72.20
2022-09-09T19:26:22.853Z,72.50
2022-09-09T19:30:29.325Z,72.90
2022-09-09T19:34:34.741Z,73.10
2022-09-09T19:38:39.795Z,73.20
2022-09-09T19:42:44.915Z,73.40
2022-09-09T19:46:49.136Z,73.70
2022-09-09T19:50:55.154Z,74.00
2022-09-09T19:55:02.263Z,74.50
2022-09-09T19:59:09.468Z,74.80
2022-09-09T20:03:19.741Z,75.20
2022-09-09T20:07:26.038Z,75.40
2022-09-09T20:11:33.716Z,75.50
2022-09-09T20:15:39.118Z,75.80
2022-09-09T20:19:43.875Z,76.00
2022-09-09T20:23:51.318Z,76.40
2022-09-09T20:27:55.701Z,76.70
2022-09-09T20:32:00.249Z,77.00
2022-09-09T20:36:21.322Z,77.40
2022-09-09T20:40:32.808Z,77.60
2022-09-09T20:44:38.431Z,77.80
2022-09-09T20:48:45.051Z,78.00
2022-09-09T20:52:53.061Z,78.20
2022-09-09T20:56:58.340Z,78.40
2022-09-09T21:01:08.034Z,78.80
2022-09-09T21:05:15.767Z,79.10
2022-09-09T21:09:25.356Z,79.30
2022-09-09T21:13:34.578Z,79.40
2022-09-09T21:17:41.777Z,79.50
2022-09-09T21:21:48.670Z,79.60
2022-09-09T21:25:54.357Z,79.70
2022-09-09T21:29:59.306Z,79.70
2022-09-09T21:34:03.547Z,79.80
2022-09-09T21:38:17.787Z,80.00
2022-09-09T21:42:22.585Z,80.10
2022-09-09T21:46:28.692Z,80.40
2022-09-09T21:50:37.626Z,80.30
2022-09-09T21:54:44.815Z,80.40
2022-09-09T21:58:59.139Z,80.50
2022-09-09T22:03:06.899Z,80.60
2022-09-09T22:07:11.620Z,80.80
2022-09-09T22:11:20.573Z,80.90
2022-09-09T22:15:25.679Z,81.00
2022-09-09T22:19:32.346Z,81.10
2022-09-09T22:23:37.512Z,81.30
2022-09-09T22:27:43.048Z,81.50
2022-09-09T22:31:47.937Z,81.80
2022-09-09T22:35:53.450Z,82.00
2022-09-09T22:39:58.032Z,82.10
2022-09-09T22:44:03.056Z,82.50
2022-09-09T22:48:07.288Z,82.60
2022-09-09T22:52:11.761Z,83.00
2022-09-09T22:56:18.803Z,83.10
2022-09-09T23:00:24.261Z,83.20
2022-09-09T23:04:29.119Z,83.50
2022-09-09T23:08:37.359Z,83.70
2022-09-09T23:12:42.720Z,83.70
2022-09-09T23:16:47.704Z,83.90
2022-09-09T23:21:01.138Z,84.20
2022-09-09T23:25:06.735Z,84.30
2022-09-09T23:29:15.535Z,84.40
